Time;durP1;ratioP1;P1;durP2;ratioP2;P2;SDS_P1;SDS_P2;PMS_P1;PMS_P2;Temp;Humidity;BMP_temperature;BMP_pressure;BME280_temperature;BME280_humidity;BME280_pressure;Samples;Min_cycle;Max_cycle;Signal;HPM_P1;HPM_P2
2022/12/16 00:01:09;;;;;;;32.95;22.55;;;-1.20;99.90;;;;;;5046301;28;20287;-69
2022/12/16 00:03:37;;;;;;;29.77;21.98;;;-1.10;99.90;;;;;;5044766;28;20203;-68
2022/12/16 00:06:04;;;;;;;45.45;23.35;;;-1.00;99.90;;;;;;5044104;28;20207;-69
2022/12/16 00:08:37;;;;;;;32.85;21.65;;;-0.90;99.90;;;;;;5055047;28;20239;-69
2022/12/16 00:11:04;;;;;;;29.35;20.90;;;-0.90;99.90;;;;;;5048010;28;20235;-70
2022/12/16 00:13:34;;;;;;;28.25;20.60;;;-0.80;99.90;;;;;;5041381;28;20283;-70
2022/12/16 00:16:05;;;;;;;31.02;22.48;;;-0.70;99.90;;;;;;5038616;28;20224;-70
2022/12/16 00:18:32;;;;;;;25.13;20.20;;;-0.60;99.90;;;;;;5049258;28;20221;-68
2022/12/16 00:21:00;;;;;;;36.53;22.30;;;-0.60;99.90;;;;;;5045694;28;20226;-68
2022/12/16 00:23:28;;;;;;;39.25;21.98;;;-0.60;99.90;;;;;;5049560;28;20203;-69
2022/12/16 00:25:55;;;;;;;31.58;22.13;;;-0.60;99.90;;;;;;5052299;28;20764;-70
2022/12/16 00:28:22;;;;;;;35.50;21.77;;;-0.60;99.90;;;;;;5054658;28;20214;-69
2022/12/16 00:30:51;;;;;;;28.95;20.27;;;-0.60;99.90;;;;;;5047382;28;20232;-70
2022/12/16 00:33:18;;;;;;;31.42;22.00;;;-0.60;99.90;;;;;;5048538;28;20199;-69
2022/12/16 00:35:46;;;;;;;24.73;20.10;;;-0.60;99.90;;;;;;5044507;28;20200;-70
2022/12/16 00:38:12;;;;;;;34.25;23.20;;;-0.60;99.90;;;;;;5050323;28;20251;-70
2022/12/16 00:40:40;;;;;;;32.15;21.60;;;-0.50;99.90;;;;;;5049506;28;20586;-70
2022/12/16 00:43:06;;;;;;;30.65;20.70;;;-0.60;99.90;;;;;;5046633;28;20210;-70
2022/12/16 00:45:34;;;;;;;29.48;21.90;;;-0.50;99.90;;;;;;5043486;28;20299;-69
2022/12/16 00:48:02;;;;;;;31.95;20.63;;;-0.50;99.90;;;;;;5054550;28;20287;-69
2022/12/16 00:50:29;;;;;;;38.63;25.00;;;-0.50;99.90;;;;;;5052528;28;20705;-70
2022/12/16 00:52:56;;;;;;;39.88;22.02;;;-0.50;99.90;;;;;;5045623;28;20291;-70
2022/12/16 00:55:23;;;;;;;29.75;22.13;;;-0.60;99.90;;;;;;5046490;28;20227;-72
2022/12/16 00:57:49;;;;;;;29.65;21.05;;;-0.60;99.90;;;;;;5044183;28;20200;-70
2022/12/16 01:00:18;;;;;;;28.75;20.73;;;-0.60;99.90;;;;;;5048770;28;20693;-69
2022/12/16 01:02:47;;;;;;;29.75;21.02;;;-0.60;99.90;;;;;;5053089;28;20672;-69
2022/12/16 01:05:19;;;;;;;29.67;22.13;;;-0.60;99.90;;;;;;5045279;28;20224;-70
2022/12/16 01:07:46;;;;;;;36.75;24.73;;;-0.60;99.90;;;;;;5038031;28;20226;-70
2022/12/16 01:10:13;;;;;;;27.20;20.55;;;-0.60;99.90;;;;;;5052737;28;20740;-70
2022/12/16 01:12:40;;;;;;;32.25;23.67;;;-0.50;99.90;;;;;;5052920;28;20686;-68
2022/12/16 01:15:11;;;;;;;34.22;21.25;;;-0.60;99.90;;;;;;5054023;28;20192;-69
2022/12/16 01:17:38;;;;;;;33.13;21.90;;;-0.50;99.90;;;;;;5044848;28;20571;-69
2022/12/16 01:20:06;;;;;;;30.33;21.30;;;-0.50;99.90;;;;;;5045813;28;20644;-69
2022/12/16 01:22:35;;;;;;;31.20;22.40;;;-0.60;99.90;;;;;;5047118;28;20236;-69
2022/12/16 01:25:03;;;;;;;32.08;21.20;;;-0.60;99.90;;;;;;5045291;28;20224;-69
2022/12/16 01:27:31;;;;;;;32.90;23.00;;;-0.60;99.90;;;;;;5046963;28;20294;-69
2022/12/16 01:29:58;;;;;;;28.55;22.10;;;-0.50;99.90;;;;;;5050627;28;20286;-69
2022/12/16 01:32:25;;;;;;;30.23;21.30;;;-0.50;99.90;;;;;;5048430;28;20219;-69
2022/12/16 01:34:53;;;;;;;28.02;22.27;;;-0.40;99.90;;;;;;5043411;28;20211;-70
2022/12/16 01:37:20;;;;;;;33.25;22.30;;;-0.30;99.90;;;;;;5042661;28;20209;-70
2022/12/16 01:39:48;;;;;;;26.73;21.70;;;-0.30;99.90;;;;;;5045498;28;20326;-70
2022/12/16 01:42:18;;;;;;;35.08;23.05;;;-0.30;99.90;;;;;;5040439;28;20655;-70
2022/12/16 01:44:47;;;;;;;36.88;24.70;;;-0.30;99.90;;;;;;5052982;28;20378;-70
2022/12/16 01:47:18;;;;;;;31.52;21.42;;;-0.20;99.90;;;;;;5054000;28;20204;-70
2022/12/16 01:49:50;;;;;;;37.97;26.52;;;-0.30;99.90;;;;;;5050564;28;20694;-70
2022/12/16 01:52:21;;;;;;;32.05;22.80;;;-0.50;99.90;;;;;;5044014;28;20208;-70
2022/12/16 01:54:56;;;;;;;28.35;21.98;;;-0.50;99.90;;;;;;5051639;28;20226;-70
2022/12/16 01:57:30;;;;;;;30.40;22.10;;;-0.40;99.90;;;;;;5025953;28;20286;-70
2022/12/16 01:59:57;;;;;;;29.85;22.75;;;-0.50;99.90;;;;;;5052763;28;20247;-70
2022/12/16 02:02:25;;;;;;;32.38;23.00;;;-0.50;99.90;;;;;;5045655;28;20572;-70
2022/12/16 02:07:38;;;;;;;34.15;22.88;;;-0.50;99.90;;;;;;5048980;28;20218;-69
2022/12/16 02:10:10;;;;;;;33.35;24.45;;;-0.50;99.90;;;;;;5040325;28;20220;-69
2022/12/16 02:12:45;;;;;;;41.55;24.25;;;-0.50;99.90;;;;;;5052941;28;20239;-69
2022/12/16 02:15:32;;;;;;;31.90;23.92;;;-0.60;99.90;;;;;;5028060;28;20521;-69
2022/12/16 02:18:05;;;;;;;33.10;23.23;;;-0.80;99.90;;;;;;5037325;28;20227;-70
2022/12/16 02:20:59;;;;;;;33.00;24.50;;;-0.80;99.90;;;;;;5050807;28;20219;-69
2022/12/16 02:24:04;;;;;;;39.60;26.45;;;-0.80;99.90;;;;;;5043816;28;20199;-69
2022/12/16 02:27:01;;;;;;;35.75;24.35;;;-1.00;99.90;;;;;;5029724;28;20286;-68
2022/12/16 02:29:50;;;;;;;31.90;24.40;;;-1.00;99.90;;;;;;5025621;28;20228;-69
2022/12/16 02:32:23;;;;;;;36.05;25.95;;;-1.20;99.90;;;;;;5036324;28;20215;-69
2022/12/16 02:34:58;;;;;;;35.45;25.52;;;-1.30;99.90;;;;;;5049700;28;20210;-69
2022/12/16 02:37:37;;;;;;;39.25;25.27;;;-1.30;99.90;;;;;;5041802;28;20207;-68
2022/12/16 02:40:11;;;;;;;42.63;25.75;;;-1.30;99.90;;;;;;5032476;28;20230;-69
2022/12/16 02:42:43;;;;;;;33.53;25.55;;;-1.30;99.90;;;;;;5046586;28;20578;-69
2022/12/16 02:45:13;;;;;;;41.47;26.33;;;-1.30;99.90;;;;;;5042333;28;20781;-69
2022/12/16 02:47:41;;;;;;;34.97;24.42;;;-1.30;99.90;;;;;;5047344;28;20277;-69
2022/12/16 02:50:17;;;;;;;35.70;26.80;;;-1.30;99.90;;;;;;5047697;28;20223;-70
2022/12/16 02:52:45;;;;;;;36.33;25.60;;;-1.30;99.90;;;;;;5041274;28;20192;-70
2022/12/16 02:55:12;;;;;;;41.25;27.13;;;-1.30;99.90;;;;;;5045261;28;20563;-70
2022/12/16 02:57:55;;;;;;;35.15;26.40;;;-1.40;99.90;;;;;;5051232;28;20201;-69
2022/12/16 03:00:52;;;;;;;39.53;27.08;;;-1.30;99.90;;;;;;5098979;22;20231;-84
2022/12/16 03:17:24;;;;;;;;;;;;;;;;;;;;;
2022/12/16 03:23:58;;;;;;;41.75;25.30;;;-1.60;99.90;;;;;;4871922;29;20675;-81
2022/12/16 03:36:46;;;;;;;39.22;27.17;;;-1.90;99.90;;;;;;5036392;28;20295;-81
2022/12/16 03:39:53;;;;;;;43.47;29.13;;;-1.90;99.90;;;;;;5023311;28;20225;-82
2022/12/16 03:42:54;;;;;;;33.30;22.77;;;-1.80;99.90;;;;;;5041023;28;20215;-82
2022/12/16 03:52:25;;;;;;;46.17;25.90;;;-1.50;99.90;;;;;;5048143;28;20204;-82
2022/12/16 03:58:57;;;;;;;37.83;28.08;;;-1.50;99.90;;;;;;5030347;28;20233;-82
2022/12/16 04:01:49;;;;;;;40.38;26.13;;;-1.60;99.90;;;;;;5036674;28;20295;-82
2022/12/16 04:04:31;;;;;;;38.53;25.90;;;-1.60;99.90;;;;;;5044208;28;20193;-82
2022/12/16 04:28:00;;;;;;;34.30;25.80;;;-1.60;99.90;;;;;;4964518;28;20212;-82
